Time;durP1;ratioP1;P1;durP2;ratioP2;P2;SDS_P1;SDS_P2;PMS_P1;PMS_P2;Temp;Humidity;BMP_temperature;BMP_pressure;BME280_temperature;BME280_humidity;BME280_pressure;Samples;Min_cycle;Max_cycle;Signal;HPM_P1;HPM_P2
2024/04/12 00:01:45;;;;;;;29.00;17.50;;;;;;;;;;5345284;26;19997;-49
2024/04/12 00:04:15;;;;;;;19.50;15.73;;;;;;;;;;5364478;26;20514;-49
2024/04/12 00:06:42;;;;;;;21.50;16.58;;;;;;;;;;5379626;26;20341;-49
2024/04/12 00:09:17;;;;;;;20.77;16.33;;;;;;;;;;5380281;26;20008;-49
2024/04/12 00:11:48;;;;;;;26.67;16.75;;;;;;;;;;5357274;26;20074;-48
2024/04/12 00:14:15;;;;;;;22.00;15.63;;;;;;;;;;5345647;26;20059;-48
2024/04/12 00:16:43;;;;;;;21.00;14.70;;;;;;;;;;5367954;26;20012;-50
2024/04/12 00:19:18;;;;;;;22.42;14.98;;;;;;;;;;5351101;26;20379;-50
2024/04/12 00:21:46;;;;;;;23.85;16.13;;;;;;;;;;5364777;26;20407;-49
2024/04/12 00:24:13;;;;;;;19.08;14.40;;;;;;;;;;5378658;26;20004;-50
2024/04/12 00:26:43;;;;;;;23.80;16.15;;;;;;;;;;5379839;26;20371;-50
2024/04/12 00:29:30;;;;;;;26.23;15.05;;;;;;;;;;5380161;26;20011;-49
2024/04/12 00:32:04;;;;;;;18.35;14.55;;;;;;;;;;5375276;26;20004;-49
2024/04/12 00:34:37;;;;;;;17.30;13.20;;;;;;;;;;5355879;26;20338;-48
2024/04/12 00:37:07;;;;;;;24.08;14.45;;;;;;;;;;5379584;26;20000;-49
2024/04/12 00:39:39;;;;;;;21.88;14.98;;;;;;;;;;5378868;26;20069;-49
2024/04/12 00:42:10;;;;;;;21.42;14.57;;;;;;;;;;5324354;26;19997;-49
2024/04/12 00:44:40;;;;;;;21.27;15.02;;;;;;;;;;5343422;26;20029;-49
2024/04/12 00:47:15;;;;;;;20.13;14.35;;;;;;;;;;5351960;26;20425;-49
2024/04/12 00:49:49;;;;;;;25.38;15.98;;;;;;;;;;5363760;26;20041;-50
2024/04/12 00:52:22;;;;;;;21.25;16.38;;;;;;;;;;5351699;26;19997;-50
2024/04/12 00:54:54;;;;;;;18.25;14.68;;;;;;;;;;5344918;26;20004;-49
2024/04/12 00:57:20;;;;;;;22.23;14.88;;;;;;;;;;5343076;26;20001;-49
2024/04/12 00:59:47;;;;;;;28.05;16.45;;;;;;;;;;5344165;26;20007;-50
2024/04/12 01:02:15;;;;;;;21.90;16.47;;;;;;;;;;5318857;26;20001;-49
2024/04/12 01:04:41;;;;;;;22.90;16.70;;;;;;;;;;5375184;26;20453;-49
2024/04/12 01:07:13;;;;;;;21.27;16.10;;;;;;;;;;5374904;26;20015;-49
2024/04/12 01:09:43;;;;;;;21.98;15.80;;;;;;;;;;5377721;26;20365;-49
2024/04/12 01:12:16;;;;;;;24.48;17.17;;;;;;;;;;5361399;26;19997;-48
2024/04/12 01:14:43;;;;;;;24.35;18.30;;;;;;;;;;5375702;26;20416;-49
2024/04/12 01:17:10;;;;;;;;;;;;;;;;;;5370396;26;20005;-50
2024/04/12 01:19:38;;;;;;;20.73;15.20;;;;;;;;;;5343866;26;20316;-50
2024/04/12 01:22:05;;;;;;;24.88;15.88;;;;;;;;;;5345971;26;20448;-49
2024/04/12 01:24:34;;;;;;;30.60;16.83;;;;;;;;;;5343948;26;19993;-48
2024/04/12 01:27:05;;;;;;;26.08;19.13;;;;;;;;;;5355137;26;20543;-49
2024/04/12 01:29:31;;;;;;;28.98;18.52;;;;;;;;;;5345356;26;20005;-46
2024/04/12 01:31:57;;;;;;;26.10;18.93;;;;;;;;;;5369051;26;20015;-49
2024/04/12 01:34:23;;;;;;;26.55;18.33;;;;;;;;;;5377652;26;20234;-50
2024/04/12 01:36:51;;;;;;;29.10;17.67;;;;;;;;;;5373947;26;20000;-49
2024/04/12 01:39:18;;;;;;;20.98;17.27;;;;;;;;;;5350266;26;20001;-52
2024/04/12 01:41:44;;;;;;;22.80;16.60;;;;;;;;;;5343941;26;20012;-48
2024/04/12 01:44:12;;;;;;;20.42;16.17;;;;;;;;;;5345770;26;20240;-49
2024/04/12 01:46:39;;;;;;;25.88;17.25;;;;;;;;;;5365859;26;20492;-49
2024/04/12 01:49:10;;;;;;;22.00;16.30;;;;;;;;;;5353489;26;20012;-49
2024/04/12 01:51:41;;;;;;;23.20;18.40;;;;;;;;;;5344569;26;20009;-50
2024/04/12 01:54:14;;;;;;;31.95;18.30;;;;;;;;;;5369032;26;20105;-50
2024/04/12 01:56:47;;;;;;;29.20;18.95;;;;;;;;;;5347380;26;20001;-50
2024/04/12 01:59:21;;;;;;;31.08;18.95;;;;;;;;;;5366238;26;20001;-49
2024/04/12 02:01:52;;;;;;;27.58;18.70;;;;;;;;;;5356739;26;20012;-48
2024/04/12 02:04:18;;;;;;;21.83;17.40;;;;;;;;;;5346930;26;20008;-50
2024/04/12 02:06:51;;;;;;;25.15;17.35;;;;;;;;;;5368673;26;20000;-51
2024/04/12 02:09:19;;;;;;;26.90;16.98;;;;;;;;;;5352724;26;20004;-48
2024/04/12 02:11:46;;;;;;;28.80;16.77;;;;;;;;;;5379751;26;19992;-49
2024/04/12 02:14:12;;;;;;;27.13;18.67;;;;;;;;;;5380316;26;20338;-49
2024/04/12 02:16:39;;;;;;;22.88;18.70;;;;;;;;;;5357068;26;20009;-49
2024/04/12 02:19:06;;;;;;;23.35;18.15;;;;;;;;;;5363972;26;20077;-49
2024/04/12 02:21:32;;;;;;;28.05;18.58;;;;;;;;;;5359996;26;20029;-50
2024/04/12 02:24:02;;;;;;;30.73;17.30;;;;;;;;;;5347280;26;20007;-49
2024/04/12 02:26:31;;;;;;;24.27;16.88;;;;;;;;;;5345152;26;20093;-48
2024/04/12 02:29:01;;;;;;;22.67;16.90;;;;;;;;;;5361101;26;20004;-49
2024/04/12 02:31:31;;;;;;;27.27;17.05;;;;;;;;;;5361352;26;20004;-49
2024/04/12 02:33:58;;;;;;;20.50;16.50;;;;;;;;;;5346488;26;20004;-49
2024/04/12 02:36:30;;;;;;;;;;;;;;;;;;5349614;26;20354;-49
2024/04/12 02:38:56;;;;;;;21.10;16.77;;;;;;;;;;5349096;26;19958;-49
2024/04/12 02:41:23;;;;;;;24.45;17.13;;;;;;;;;;5348254;26;20016;-49
2024/04/12 02:43:52;;;;;;;25.05;18.05;;;;;;;;;;5346679;26;20465;-49
2024/04/12 02:46:19;;;;;;;23.10;17.30;;;;;;;;;;5350746;26;20009;-49
2024/04/12 02:48:47;;;;;;;26.23;18.05;;;;;;;;;;5347002;26;20013;-49
2024/04/12 02:51:17;;;;;;;24.17;17.58;;;;;;;;;;5359950;26;20001;-49
2024/04/12 02:53:44;;;;;;;22.33;17.77;;;;;;;;;;5358846;26;20468;-49
2024/04/12 02:56:12;;;;;;;27.80;18.63;;;;;;;;;;5360829;26;20469;-49
2024/04/12 02:58:39;;;;;;;24.10;17.73;;;;;;;;;;5344504;26;19997;-49
2024/04/12 03:01:12;;;;;;;27.45;20.45;;;;;;;;;;5369453;26;20001;-50
2024/04/12 03:03:45;;;;;;;21.35;16.52;;;;;;;;;;5377997;26;20009;-48
2024/04/12 03:06:16;;;;;;;20.08;15.98;;;;;;;;;;5381086;26;20012;-49
2024/04/12 03:08:44;;;;;;;20.58;16.70;;;;;;;;;;5356946;26;20037;-48
2024/04/12 03:11:20;;;;;;;22.52;16.23;;;;;;;;;;5366893;26;20313;-49
2024/04/12 03:13:46;;;;;;;23.30;17.55;;;;;;;;;;5359542;26;20015;-49
2024/04/12 03:16:13;;;;;;;22.48;17.20;;;;;;;;;;5381006;26;20001;-49
2024/04/12 03:18:46;;;;;;;25.02;16.48;;;;;;;;;;5369066;26;20001;-50
2024/04/12 03:21:16;;;;;;;25.13;18.08;;;;;;;;;;5345785;26;20021;-49
2024/04/12 03:23:46;;;;;;;27.10;17.55;;;;;;;;;;5354841;26;20023;-49
2024/04/12 03:26:13;;;;;;;24.02;17.70;;;;;;;;;;5380792;26;20070;-49
2024/04/12 03:28:39;;;;;;;25.00;18.45;;;;;;;;;;5380845;26;20383;-49
2024/04/12 03:31:07;;;;;;;21.88;18.60;;;;;;;;;;5365050;26;20015;-49
2024/04/12 03:33:42;;;;;;;30.52;18.90;;;;;;;;;;5350335;26;20345;-49
2024/04/12 03:36:26;;;;;;;27.50;19.08;;;;;;;;;;5365657;26;20491;-50
2024/04/12 03:41:47;;;;;;;21.83;15.80;;;;;;;;;;5379784;26;20000;-49
2024/04/12 03:44:14;;;;;;;22.77;16.35;;;;;;;;;;5358127;26;20011;-50
2024/04/12 03:46:44;;;;;;;21.55;16.52;;;;;;;;;;5346155;26;19997;-48
2024/04/12 03:49:16;;;;;;;26.25;16.02;;;;;;;;;;5345477;26;20001;-47
2024/04/12 03:51:47;;;;;;;25.65;17.27;;;;;;;;;;5345885;26;20005;-47
2024/04/12 03:54:17;;;;;;;25.65;17.90;;;;;;;;;;5347462;26;20005;-47
2024/04/12 03:56:44;;;;;;;23.63;16.95;;;;;;;;;;5348252;26;20000;-50
2024/04/12 03:59:11;;;;;;;22.80;16.95;;;;;;;;;;5346599;26;20001;-49
2024/04/12 04:01:37;;;;;;;22.10;16.98;;;;;;;;;;5342216;26;19993;-49
2024/04/12 04:04:10;;;;;;;28.03;17.80;;;;;;;;;;5342864;26;20005;-49
2024/04/12 04:06:37;;;;;;;24.60;16.73;;;;;;;;;;5342875;26;20482;-51
2024/04/12 04:09:06;;;;;;;;;;;;;;;;;;5344119;26;19993;-49
2024/04/12 04:11:32;;;;;;;22.65;17.38;;;;;;;;;;5343271;26;20275;-50
2024/04/12 04:13:59;;;;;;;24.08;16.55;;;;;;;;;;5344045;26;20008;-49
2024/04/12 04:16:35;;;;;;;26.40;18.10;;;;;;;;;;5343769;26;19992;-49
2024/04/12 04:19:05;;;;;;;21.90;16.67;;;;;;;;;;5345499;26;20456;-49
2024/04/12 04:21:38;;;;;;;20.92;16.17;;;;;;;;;;5342940;26;20239;-50
2024/04/12 04:24:10;;;;;;;25.15;18.08;;;;;;;;;;5345396;26;20009;-49
2024/04/12 04:26:37;;;;;;;21.90;16.98;;;;;;;;;;5345313;26;20005;-49
2024/04/12 04:29:09;;;;;;;24.45;17.35;;;;;;;;;;5345304;26;20012;-49
2024/04/12 04:31:47;;;;;;;25.55;17.13;;;;;;;;;;5345143;26;20021;-49
2024/04/12 04:34:22;;;;;;;24.52;17.45;;;;;;;;;;5344953;26;20007;-49
2024/04/12 04:36:49;;;;;;;24.35;18.60;;;;;;;;;;5345007;26;20001;-50
2024/04/12 04:39:15;;;;;;;22.65;17.67;;;;;;;;;;5343634;26;20008;-49
2024/04/12 04:41:46;;;;;;;23.38;18.35;;;;;;;;;;5433514;21;20425;-52
2024/04/12 04:44:15;;;;;;;26.00;17.38;;;;;;;;;;5487847;26;20005;-52
2024/04/12 04:46:49;;;;;;;19.92;16.55;;;;;;;;;;5487433;26;20454;-53
2024/04/12 04:49:16;;;;;;;24.63;17.20;;;;;;;;;;5487686;26;19998;-50
2024/04/12 04:51:43;;;;;;;22.88;18.02;;;;;;;;;;5485518;26;19994;-52
2024/04/12 04:54:13;;;;;;;24.20;16.67;;;;;;;;;;5487519;26;19990;-51
2024/04/12 04:56:49;;;;;;;25.73;17.80;;;;;;;;;;5486183;26;20518;-50
2024/04/12 04:59:16;;;;;;;22.65;17.17;;;;;;;;;;5487362;26;19995;-51
2024/04/12 05:01:48;;;;;;;21.13;17.50;;;;;;;;;;5487088;26;19990;-52
2024/04/12 05:04:18;;;;;;;24.90;17.42;;;;;;;;;;5485647;26;20446;-51
2024/04/12 05:06:44;;;;;;;28.92;18.15;;;;;;;;;;5486895;26;19994;-51
2024/04/12 05:09:18;;;;;;;26.45;17.92;;;;;;;;;;5486802;26;19995;-52
2024/04/12 05:11:52;;;;;;;25.35;16.77;;;;;;;;;;5486866;26;19994;-52
2024/04/12 05:17:03;;;;;;;22.20;16.73;;;;;;;;;;5487049;26;19997;-50
2024/04/12 05:19:35;;;;;;;23.50;17.52;;;;;;;;;;5486625;26;20407;-50
2024/04/12 05:22:06;;;;;;;26.48;18.08;;;;;;;;;;5486855;26;20029;-52
2024/04/12 05:24:35;;;;;;;24.67;18.48;;;;;;;;;;5488391;26;20001;-49
2024/04/12 05:27:04;;;;;;;32.22;15.93;;;;;;;;;;5490472;26;20517;-50
2024/04/12 05:29:30;;;;;;;23.35;17.45;;;;;;;;;;5490623;26;19994;-52
2024/04/12 05:32:00;;;;;;;24.08;17.58;;;;;;;;;;5488780;26;20438;-50
2024/04/12 05:34:27;;;;;;;28.15;18.92;;;;;;;;;;5488744;26;19994;-51
2024/04/12 05:37:03;;;;;;;27.02;19.33;;;;;;;;;;5488481;26;20034;-50
2024/04/12 05:39:41;;;;;;;30.58;19.10;;;;;;;;;;5488812;26;19993;-50
2024/04/12 05:42:09;;;;;;;26.92;18.10;;;;;;;;;;5490322;26;20008;-51
2024/04/12 05:44:39;;;;;;;28.20;17.08;;;;;;;;;;5489925;26;19994;-51
2024/04/12 05:47:06;;;;;;;27.52;17.33;;;;;;;;;;5490167;26;19990;-52
2024/04/12 05:49:33;;;;;;;31.08;19.40;;;;;;;;;;5490100;26;20009;-51
2024/04/12 05:52:03;;;;;;;23.92;18.40;;;;;;;;;;5488274;26;20012;-50
2024/04/12 05:54:39;;;;;;;26.58;18.17;;;;;;;;;;5490421;26;19991;-51
2024/04/12 05:57:07;;;;;;;26.25;17.83;;;;;;;;;;5490174;26;19994;-52
2024/04/12 05:59:33;;;;;;;25.77;18.92;;;;;;;;;;5488302;26;20564;-51
2024/04/12 06:02:01;;;;;;;26.35;19.20;;;;;;;;;;5489696;26;19994;-51
2024/04/12 06:04:28;;;;;;;26.90;18.98;;;;;;;;;;5489955;26;19994;-51
2024/04/12 06:06:55;;;;;;;28.70;20.90;;;;;;;;;;5489835;26;20059;-52
2024/04/12 06:09:21;;;;;;;23.35;18.05;;;;;;;;;;5488852;26;20466;-52
2024/04/12 06:11:51;;;;;;;25.25;18.70;;;;;;;;;;5489479;26;20009;-52
2024/04/12 06:14:21;;;;;;;30.00;18.95;;;;;;;;;;5457392;26;20014;-54
2024/04/12 06:16:48;;;;;;;24.67;18.02;;;;;;;;;;5489685;26;19994;-54
2024/04/12 06:19:14;;;;;;;;;;;;;;;;;;5490350;26;19991;-52
2024/04/12 06:21:45;;;;;;;33.83;19.50;;;;;;;;;;5489342;26;20250;-52
2024/04/12 06:24:12;;;;;;;24.33;19.00;;;;;;;;;;5489900;26;19994;-52
2024/04/12 06:26:39;;;;;;;26.13;19.67;;;;;;;;;;5489371;26;20573;-50
2024/04/12 06:29:09;;;;;;;33.08;19.35;;;;;;;;;;5487717;26;20009;-51
2024/04/12 06:31:35;;;;;;;30.85;20.42;;;;;;;;;;5487522;26;19991;-51
2024/04/12 06:34:05;;;;;;;23.75;19.33;;;;;;;;;;5487862;26;19994;-51
2024/04/12 06:36:34;;;;;;;26.08;18.40;;;;;;;;;;5488948;26;20000;-51
2024/04/12 06:39:04;;;;;;;24.45;19.08;;;;;;;;;;5489263;26;19993;-51
2024/04/12 06:41:31;;;;;;;32.20;19.85;;;;;;;;;;5489204;26;20078;-51
2024/04/12 06:43:57;;;;;;;28.38;20.20;;;;;;;;;;5489536;26;20009;-51
2024/04/12 06:46:27;;;;;;;28.10;20.58;;;;;;;;;;5489337;26;19990;-50
2024/04/12 06:49:07;;;;;;;26.55;19.40;;;;;;;;;;5489443;26;20488;-51
2024/04/12 06:54:23;;;;;;;29.77;20.23;;;;;;;;;;5487611;26;19994;-51
2024/04/12 06:56:50;;;;;;;32.67;19.92;;;;;;;;;;5489158;26;20005;-51
2024/04/12 06:59:18;;;;;;;28.48;20.98;;;;;;;;;;5489446;26;20473;-52
2024/04/12 07:01:44;;;;;;;24.92;20.10;;;;;;;;;;5487223;26;20002;-55
2024/04/12 07:04:10;;;;;;;36.20;21.00;;;;;;;;;;5488940;26;19990;-51
2024/04/12 07:06:37;;;;;;;24.52;20.70;;;;;;;;;;5489171;26;19990;-51
2024/04/12 07:09:08;;;;;;;29.92;20.48;;;;;;;;;;5489205;26;20022;-52
2024/04/12 07:11:39;;;;;;;25.52;19.85;;;;;;;;;;5488933;26;19990;-51
2024/04/12 07:14:09;;;;;;;29.35;20.85;;;;;;;;;;5487414;26;20004;-54
2024/04/12 07:16:35;;;;;;;25.65;20.05;;;;;;;;;;5488914;26;19991;-52
2024/04/12 07:19:08;;;;;;;29.13;21.03;;;;;;;;;;5489093;26;19990;-52
2024/04/12 07:21:38;;;;;;;27.58;19.98;;;;;;;;;;5488747;26;20001;-55
2024/04/12 07:24:05;;;;;;;27.90;20.13;;;;;;;;;;5486929;26;19990;-53
2024/04/12 07:26:32;;;;;;;26.58;17.40;;;;;;;;;;5487037;26;19998;-51
2024/04/12 07:29:00;;;;;;;24.33;19.10;;;;;;;;;;5488753;26;20334;-50
2024/04/12 07:31:30;;;;;;;27.70;18.85;;;;;;;;;;5488223;26;19994;-53
2024/04/12 07:33:59;;;;;;;25.40;18.17;;;;;;;;;;5488873;26;20474;-54
2024/04/12 07:36:30;;;;;;;23.92;17.90;;;;;;;;;;5486802;26;20327;-51
2024/04/12 07:39:01;;;;;;;18.67;16.42;;;;;;;;;;5488811;26;19994;-50
2024/04/12 07:41:28;;;;;;;24.92;17.77;;;;;;;;;;5488168;26;20347;-50
2024/04/12 07:43:55;;;;;;;23.30;18.25;;;;;;;;;;5488777;26;19990;-50
2024/04/12 07:46:27;;;;;;;22.77;17.48;;;;;;;;;;5487038;26;20001;-51
2024/04/12 07:48:57;;;;;;;21.40;15.57;;;;;;;;;;5487378;26;20302;-52
2024/04/12 07:51:31;;;;;;;18.55;14.88;;;;;;;;;;5486285;26;20001;-50
2024/04/12 07:54:03;;;;;;;19.02;13.95;;;;;;;;;;5488569;26;20008;-50
2024/04/12 07:56:38;;;;;;;21.33;17.42;;;;;;;;;;5486709;26;20005;-51
2024/04/12 07:59:15;;;;;;;20.60;15.98;;;;;;;;;;5488395;26;19990;-50
2024/04/12 08:01:45;;;;;;;18.75;14.45;;;;;;;;;;5488141;26;20319;-50
2024/04/12 08:04:22;;;;;;;21.10;16.38;;;;;;;;;;5488049;26;20489;-50
2024/04/12 08:09:22;;;;;;;21.42;14.60;;;;;;;;;;5488176;26;19994;-52
2024/04/12 08:11:51;;;;;;;24.58;15.70;;;;;;;;;;5487872;26;20005;-50
2024/04/12 08:14:22;;;;;;;25.92;15.57;;;;;;;;;;5488520;26;20004;-54
2024/04/12 08:16:52;;;;;;;21.10;15.93;;;;;;;;;;5488527;26;20071;-52
2024/04/12 08:19:22;;;;;;;25.13;14.43;;;;;;;;;;5456115;26;19994;-52
2024/04/12 08:21:49;;;;;;;17.10;13.43;;;;;;;;;;5487601;26;19994;-53
2024/04/12 08:24:15;;;;;;;;;;;;;;;;;;5456632;26;20466;-54
2024/04/12 08:26:48;;;;;;;18.90;14.18;;;;;;;;;;5487659;26;20391;-52
2024/04/12 08:29:23;;;;;;;23.70;15.52;;;;;;;;;;5487918;26;20446;-51
2024/04/12 08:34:49;;;;;;;22.10;14.67;;;;;;;;;;5487987;26;20083;-49
2024/04/12 08:37:17;;;;;;;18.25;12.68;;;;;;;;;;5487893;26;20325;-54
2024/04/12 08:39:44;;;;;;;18.00;12.23;;;;;;;;;;5485464;26;19994;-54
2024/04/12 08:42:14;;;;;;;17.25;13.02;;;;;;;;;;5487225;26;20005;-50
2024/04/12 08:44:49;;;;;;;17.85;12.38;;;;;;;;;;5487534;26;19990;-53
2024/04/12 08:49:52;;;;;;;16.40;11.77;;;;;;;;;;5487417;26;20450;-52
2024/04/12 08:52:25;;;;;;;18.15;12.43;;;;;;;;;;5487282;26;20066;-53
2024/04/12 08:54:54;;;;;;;17.77;12.60;;;;;;;;;;5487818;26;20005;-52
2024/04/12 08:57:23;;;;;;;18.17;11.57;;;;;;;;;;5487258;26;20346;-54
2024/04/12 08:59:53;;;;;;;17.17;11.65;;;;;;;;;;5486786;26;20004;-54
2024/04/12 09:02:23;;;;;;;18.75;12.43;;;;;;;;;;5490608;26;20464;-54
2024/04/12 09:04:52;;;;;;;17.23;12.95;;;;;;;;;;5490681;26;20006;-51
2024/04/12 09:07:20;;;;;;;17.40;12.82;;;;;;;;;;5490929;26;20465;-51
2024/04/12 09:09:56;;;;;;;20.67;12.55;;;;;;;;;;5490697;26;20005;-50
2024/04/12 09:12:24;;;;;;;20.83;14.13;;;;;;;;;;5489226;26;19994;-50
2024/04/12 09:14:59;;;;;;;19.38;13.27;;;;;;;;;;5490507;26;20027;-50
2024/04/12 09:17:29;;;;;;;15.88;12.55;;;;;;;;;;5488893;26;20346;-50
2024/04/12 09:19:58;;;;;;;18.63;12.90;;;;;;;;;;5488676;26;20002;-50
2024/04/12 09:22:28;;;;;;;15.10;11.82;;;;;;;;;;5488516;26;20526;-51
2024/04/12 09:25:14;;;;;;;16.98;11.98;;;;;;;;;;5490577;26;19991;-50
2024/04/12 09:27:44;;;;;;;18.25;13.00;;;;;;;;;;5488964;26;20034;-50
2024/04/12 09:33:00;;;;;;;17.83;13.63;;;;;;;;;;5490497;26;20062;-50
2024/04/12 09:35:34;;;;;;;18.15;12.70;;;;;;;;;;5488839;26;19990;-50
2024/04/12 09:38:05;;;;;;;21.75;13.02;;;;;;;;;;5488634;26;20411;-51
2024/04/12 09:40:34;;;;;;;16.08;11.55;;;;;;;;;;5490193;26;20544;-50
2024/04/12 09:45:52;;;;;;;14.03;11.70;;;;;;;;;;5490509;26;20009;-50
2024/04/12 10:38:47;;;;;;;18.52;13.40;;;;;;;;;;5488073;26;19998;-52
2024/04/12 10:43:43;;;;;;;15.40;12.13;;;;;;;;;;5376572;26;20033;-50
2024/04/12 10:46:11;;;;;;;17.70;12.02;;;;;;;;;;5375993;26;20432;-50
2024/04/12 10:48:43;;;;;;;17.80;12.98;;;;;;;;;;5349068;26;20009;-49
2024/04/12 10:51:12;;;;;;;20.45;13.25;;;;;;;;;;5378597;26;20000;-49
2024/04/12 10:53:39;;;;;;;16.65;13.48;;;;;;;;;;5343836;26;20085;-51
2024/04/12 10:56:07;;;;;;;17.30;14.45;;;;;;;;;;5344372;26;20460;-50
2024/04/12 10:58:33;;;;;;;13.90;11.40;;;;;;;;;;5343656;26;20100;-51
2024/04/12 11:01:06;;;;;;;16.48;11.93;;;;;;;;;;5313945;26;20466;-50
2024/04/12 11:03:38;;;;;;;14.10;12.65;;;;;;;;;;5341469;26;20002;-52
2024/04/12 11:06:21;;;;;;;22.90;13.32;;;;;;;;;;5314073;26;20045;-51
2024/04/12 11:08:47;;;;;;;17.35;12.10;;;;;;;;;;5344596;26;20000;-51
2024/04/12 11:11:19;;;;;;;14.73;11.68;;;;;;;;;;5312159;26;20036;-50
2024/04/12 11:13:46;;;;;;;16.90;12.20;;;;;;;;;;5344166;26;20009;-51
2024/04/12 11:32:43;;;;;;;15.60;12.18;;;;;;;;;;5340013;26;20005;-50
2024/04/12 11:35:15;;;;;;;21.15;12.40;;;;;;;;;;5343996;26;20013;-50
2024/04/12 11:37:41;;;;;;;13.50;11.27;;;;;;;;;;5313734;26;20000;-50
2024/04/12 11:40:16;;;;;;;20.52;13.73;;;;;;;;;;5343460;26;20082;-50
2024/04/12 11:42:48;;;;;;;18.63;12.07;;;;;;;;;;5343771;26;19996;-50
2024/04/12 11:45:17;;;;;;;12.57;10.30;;;;;;;;;;5343770;26;20011;-50
2024/04/12 11:47:44;;;;;;;11.55;9.05;;;;;;;;;;5343799;26;20005;-52
2024/04/12 11:50:10;;;;;;;11.05;9.77;;;;;;;;;;5343303;26;19997;-50
2024/04/12 11:52:43;;;;;;;10.63;9.52;;;;;;;;;;5343313;26;20375;-50
2024/04/12 11:55:12;;;;;;;11.32;9.52;;;;;;;;;;5313015;26;20040;-50
2024/04/12 11:57:41;;;;;;;14.77;9.82;;;;;;;;;;5343657;26;20005;-50
2024/04/12 12:00:11;;;;;;;15.45;8.80;;;;;;;;;;5342994;26;20346;-50
2024/04/12 12:02:43;;;;;;;14.13;9.10;;;;;;;;;;5343674;26;20005;-50
2024/04/12 12:05:09;;;;;;;11.43;9.25;;;;;;;;;;5340718;26;20004;-49
2024/04/12 12:07:36;;;;;;;11.48;9.23;;;;;;;;;;5313214;26;20389;-50
2024/04/12 12:10:03;;;;;;;14.25;9.85;;;;;;;;;;5343505;26;20001;-52
2024/04/12 12:12:30;;;;;;;11.70;9.85;;;;;;;;;;5343574;26;20472;-50
2024/04/12 12:14:58;;;;;;;11.55;9.50;;;;;;;;;;5312880;26;19997;-51
2024/04/12 12:17:24;;;;;;;12.48;9.38;;;;;;;;;;5342607;26;20028;-50
2024/04/12 12:19:51;;;;;;;14.15;8.32;;;;;;;;;;5313007;26;20365;-51
2024/04/12 12:22:18;;;;;;;12.98;7.60;;;;;;;;;;5343289;26;20476;-50
2024/04/12 12:24:44;;;;;;;;;;;;;;;;;;5343606;26;20036;-50
2024/04/12 12:27:10;;;;;;;11.13;8.68;;;;;;;;;;5343048;26;19926;-51
2024/04/12 12:29:37;;;;;;;15.15;7.30;;;;;;;;;;5343237;26;20000;-50
2024/04/12 12:32:03;;;;;;;10.07;6.88;;;;;;;;;;5342734;26;20361;-50
2024/04/12 12:34:33;;;;;;;12.10;9.70;;;;;;;;;;5341783;26;20162;-50
2024/04/12 12:36:59;;;;;;;11.60;8.80;;;;;;;;;;5342699;26;19997;-55
2024/04/12 12:39:31;;;;;;;12.85;7.30;;;;;;;;;;5343392;26;19997;-51
2024/04/12 12:42:04;;;;;;;11.80;8.82;;;;;;;;;;5312535;26;20019;-50
2024/04/12 12:44:31;;;;;;;13.60;9.00;;;;;;;;;;5343099;26;20004;-52
2024/04/12 12:47:02;;;;;;;10.10;6.93;;;;;;;;;;5312278;26;20001;-52
2024/04/12 12:49:39;;;;;;;9.70;6.97;;;;;;;;;;5342800;26;20009;-51
2024/04/12 12:52:10;;;;;;;10.73;6.50;;;;;;;;;;5315501;26;20019;-50
2024/04/12 12:54:37;;;;;;;15.88;7.30;;;;;;;;;;5281655;26;20059;-50
2024/04/12 12:57:07;;;;;;;10.95;7.78;;;;;;;;;;5311049;26;20055;-51
2024/04/12 12:59:40;;;;;;;10.40;6.63;;;;;;;;;;5341706;26;20024;-52
2024/04/12 13:02:16;;;;;;;9.93;7.05;;;;;;;;;;5341831;26;20030;-51
2024/04/12 13:04:43;;;;;;;9.45;6.72;;;;;;;;;;5295667;26;20044;-48
2024/04/12 13:07:10;;;;;;;8.48;6.25;;;;;;;;;;5304883;26;20461;-52
2024/04/12 13:09:37;;;;;;;8.07;5.88;;;;;;;;;;5342518;26;20015;-49
2024/04/12 13:12:09;;;;;;;7.63;6.72;;;;;;;;;;5311931;26;20489;-48
2024/04/12 13:14:45;;;;;;;10.73;6.70;;;;;;;;;;5312581;26;20015;-49
2024/04/12 13:17:12;;;;;;;11.10;6.22;;;;;;;;;;5342203;26;20008;-52
2024/04/12 13:19:42;;;;;;;8.88;6.60;;;;;;;;;;5343027;26;20005;-49
2024/04/12 13:22:11;;;;;;;10.15;7.03;;;;;;;;;;5295523;26;20000;-49
2024/04/12 13:24:38;;;;;;;9.60;5.82;;;;;;;;;;5342454;26;20005;-48
2024/04/12 13:27:07;;;;;;;8.85;4.85;;;;;;;;;;5342376;26;20012;-49
2024/04/12 13:29:33;;;;;;;17.65;9.15;;;;;;;;;;5342454;26;20001;-47
2024/04/12 13:32:00;;;;;;;7.60;6.38;;;;;;;;;;5308336;26;20025;-51
2024/04/12 13:34:26;;;;;;;9.25;5.93;;;;;;;;;;5343965;26;20458;-52
2024/04/12 13:36:53;;;;;;;8.27;5.95;;;;;;;;;;5313701;26;20001;-51
2024/04/12 13:39:24;;;;;;;11.60;6.72;;;;;;;;;;5343882;26;20404;-51
2024/04/12 13:41:56;;;;;;;11.25;6.72;;;;;;;;;;5343200;26;20074;-49
2024/04/12 13:44:27;;;;;;;8.68;7.07;;;;;;;;;;5344539;26;20075;-52
2024/04/12 13:52:23;;;;;;;8.73;6.10;;;;;;;;;;5346582;26;20003;-53
2024/04/12 13:54:50;;;;;;;;;;;;;;;;;;5348051;26;20539;-53
2024/04/12 13:57:17;;;;;;;10.10;7.72;;;;;;;;;;5346962;26;19932;-51
2024/04/12 13:59:44;;;;;;;8.98;7.20;;;;;;;;;;5346867;26;20433;-49
2024/04/12 14:02:11;;;;;;;12.73;7.97;;;;;;;;;;5316629;26;20012;-51
2024/04/12 14:04:38;;;;;;;13.15;7.32;;;;;;;;;;5316398;26;20009;-48
2024/04/12 14:07:05;;;;;;;9.05;7.20;;;;;;;;;;5346846;26;19993;-53
2024/04/12 14:09:31;;;;;;;9.75;8.32;;;;;;;;;;5288355;26;19993;-54
2024/04/12 14:11:57;;;;;;;18.08;7.88;;;;;;;;;;5316245;26;20059;-54
2024/04/12 14:14:23;;;;;;;;;;;;;;;;;;5347794;26;19993;-50
2024/04/12 14:16:51;;;;;;;10.43;8.50;;;;;;;;;;5346770;26;20004;-50
2024/04/12 14:19:18;;;;;;;11.07;8.82;;;;;;;;;;5316571;26;20441;-53
2024/04/12 14:21:45;;;;;;;;;;;;;;;;;;5316919;26;19993;-51
2024/04/12 14:24:56;;;;;;;12.02;8.35;;;;;;;;;;5347084;26;19925;-50
2024/04/12 14:26:58;;;;;;;12.87;9.07;;;;;;;;;;5346890;26;19993;-51
2024/04/12 14:29:26;;;;;;;9.73;8.32;;;;;;;;;;5346706;26;19997;-52
2024/04/12 14:31:56;;;;;;;11.57;9.02;;;;;;;;;;5346592;26;20338;-50
2024/04/12 14:34:23;;;;;;;12.68;9.32;;;;;;;;;;5346558;26;20011;-49
2024/04/12 14:36:49;;;;;;;10.38;9.15;;;;;;;;;;5346912;26;20004;-49
2024/04/12 14:39:18;;;;;;;;;;;;;;;;;;5347218;26;20012;-49
2024/04/12 14:41:45;;;;;;;13.25;9.05;;;;;;;;;;5315535;26;20390;-49
2024/04/12 14:44:14;;;;;;;10.05;9.02;;;;;;;;;;5346452;26;20001;-50
2024/04/12 14:46:42;;;;;;;12.13;9.30;;;;;;;;;;5316076;26;20067;-48
2024/04/12 14:49:09;;;;;;;13.00;7.95;;;;;;;;;;5346349;26;20476;-49
2024/04/12 14:51:37;;;;;;;10.43;7.97;;;;;;;;;;5344490;26;20017;-49
2024/04/12 14:54:05;;;;;;;10.70;7.60;;;;;;;;;;5345816;26;20365;-49
2024/04/12 14:56:32;;;;;;;11.05;8.13;;;;;;;;;;5344624;26;19989;-49
2024/04/12 14:58:58;;;;;;;13.50;6.97;;;;;;;;;;5316053;26;20028;-50
2024/04/12 15:01:24;;;;;;;10.75;7.93;;;;;;;;;;5315248;26;19999;-50
2024/04/12 15:53:16;;;;;;;11.50;7.43;;;;;;;;;;5314808;26;20460;-51
2024/04/12 15:55:39;;;;;;;7.77;6.97;;;;;;;;;;5345471;26;20314;-49
2024/04/12 16:11:50;;;;;;;12.07;7.80;;;;;;;;;;5345260;26;20001;-49
2024/04/12 16:14:16;;;;;;;7.93;6.97;;;;;;;;;;5345233;26;20025;-49
2024/04/12 16:16:43;;;;;;;9.80;6.68;;;;;;;;;;5345376;26;19993;-50
2024/04/12 16:19:09;;;;;;;10.18;6.85;;;;;;;;;;5345407;26;20497;-49
2024/04/12 16:21:35;;;;;;;10.13;6.32;;;;;;;;;;5344813;26;20033;-49
2024/04/12 16:24:02;;;;;;;10.95;7.35;;;;;;;;;;5345119;26;20003;-52
2024/04/12 16:26:28;;;;;;;9.63;6.80;;;;;;;;;;5344962;26;19993;-49
2024/04/12 16:28:54;;;;;;;14.23;7.60;;;;;;;;;;5314902;26;20009;-53
2024/04/12 16:31:22;;;;;;;11.35;7.07;;;;;;;;;;5314186;26;20005;-49
2024/04/12 16:33:48;;;;;;;;;;;;;;;;;;5314765;26;20565;-50
2024/04/12 16:36:14;;;;;;;9.82;6.30;;;;;;;;;;5345036;26;19926;-49
2024/04/12 16:38:40;;;;;;;9.60;6.18;;;;;;;;;;5345231;26;20078;-50
2024/04/12 16:41:10;;;;;;;8.82;6.47;;;;;;;;;;5344519;26;19997;-49
2024/04/12 16:43:37;;;;;;;10.95;6.45;;;;;;;;;;5345191;26;19993;-49
2024/04/12 16:46:04;;;;;;;9.50;7.15;;;;;;;;;;5344830;26;19993;-50
2024/04/12 16:48:32;;;;;;;9.32;6.30;;;;;;;;;;5345111;26;20459;-51
2024/04/12 16:50:58;;;;;;;10.20;6.88;;;;;;;;;;5314209;26;19997;-51
2024/04/12 16:53:25;;;;;;;9.02;6.53;;;;;;;;;;5312250;26;20001;-50
2024/04/12 16:55:53;;;;;;;12.10;7.47;;;;;;;;;;5314221;26;20153;-49
2024/04/12 16:58:19;;;;;;;7.22;6.18;;;;;;;;;;5343032;26;20009;-51
2024/04/12 17:00:45;;;;;;;8.38;6.88;;;;;;;;;;5343799;26;20079;-50
2024/04/12 17:03:13;;;;;;;;;;;;;;;;;;5345109;26;20011;-51
2024/04/12 17:05:39;;;;;;;9.93;6.47;;;;;;;;;;5313810;26;20359;-49
2024/04/12 17:08:05;;;;;;;13.15;7.78;;;;;;;;;;5338784;26;20544;-50
2024/04/12 17:10:31;;;;;;;8.80;6.80;;;;;;;;;;5316793;26;20036;-49
2024/04/12 17:12:58;;;;;;;9.75;6.95;;;;;;;;;;5343373;26;20005;-50
2024/04/12 17:15:24;;;;;;;11.90;7.78;;;;;;;;;;5328734;26;20366;-51
2024/04/12 17:17:50;;;;;;;11.93;7.65;;;;;;;;;;5302274;26;20020;-50